createdAt,value
2017-09-28T00:02:15.415Z,11.16
2017-09-28T00:04:42.920Z,10.98
2017-09-28T00:07:10.437Z,10.89
2017-09-28T00:09:37.982Z,11.15
2017-09-28T00:12:05.500Z,10.92
2017-09-28T00:14:33.011Z,10.86
2017-09-28T00:17:00.533Z,11.05
2017-09-28T00:19:28.084Z,10.92
2017-09-28T00:21:55.590Z,10.74
2017-09-28T00:24:23.114Z,10.63
2017-09-28T00:26:50.630Z,10.60
2017-09-28T00:29:18.142Z,10.63
2017-09-28T00:31:45.650Z,10.68
2017-09-28T00:34:13.166Z,10.82
2017-09-28T00:36:40.682Z,10.67
2017-09-28T00:39:08.219Z,10.47
2017-09-28T00:41:35.735Z,10.60
2017-09-28T00:44:03.253Z,10.60
2017-09-28T00:46:30.777Z,10.38
2017-09-28T00:48:58.297Z,10.37
2017-09-28T00:51:25.942Z,10.40
2017-09-28T00:53:53.456Z,10.28
2017-09-28T00:56:20.975Z,10.31
2017-09-28T00:58:48.487Z,10.47
2017-09-28T01:01:16.002Z,10.47
2017-09-28T01:03:43.532Z,10.26
2017-09-28T01:06:11.088Z,10.30
2017-09-28T01:08:38.589Z,10.55
2017-09-28T01:11:06.100Z,10.39
2017-09-28T01:13:33.629Z,10.18
2017-09-28T01:16:01.139Z,10.13
2017-09-28T01:18:28.642Z,10.13
2017-09-28T01:20:56.162Z,10.34
2017-09-28T01:23:23.680Z,10.45
2017-09-28T01:25:51.195Z,10.65
2017-09-28T01:28:18.700Z,10.77
2017-09-28T01:30:46.214Z,10.64
2017-09-28T01:33:13.746Z,10.68
2017-09-28T01:35:41.287Z,10.64
2017-09-28T01:38:08.801Z,10.46
2017-09-28T01:40:36.315Z,10.39
2017-09-28T01:43:03.820Z,10.24
2017-09-28T01:45:31.343Z,10.27
2017-09-28T01:47:58.875Z,10.33
2017-09-28T01:50:26.407Z,10.26
2017-09-28T01:52:53.924Z,10.11
2017-09-28T01:55:21.467Z,10.55
2017-09-28T01:57:49.006Z,10.23
2017-09-28T02:00:16.515Z,10.58
2017-09-28T02:02:44.038Z,10.39
2017-09-28T02:05:11.563Z,10.14
2017-09-28T02:07:39.097Z,10.21
2017-09-28T02:10:06.646Z,10.44
2017-09-28T02:12:34.152Z,10.43
2017-09-28T02:15:01.652Z,10.61
2017-09-28T02:17:29.162Z,10.39
2017-09-28T02:19:56.705Z,10.49
2017-09-28T02:22:24.213Z,10.61
2017-09-28T02:24:51.720Z,10.49
2017-09-28T02:27:19.228Z,10.43
2017-09-28T02:29:46.735Z,10.29
2017-09-28T02:32:14.316Z,10.18
2017-09-28T02:34:41.834Z,10.18
2017-09-28T02:37:09.352Z,10.30
2017-09-28T02:39:36.879Z,10.49
2017-09-28T02:42:04.384Z,10.38
2017-09-28T02:44:31.899Z,10.37
2017-09-28T02:46:59.396Z,10.41
2017-09-28T02:49:26.902Z,10.43
2017-09-28T02:51:54.443Z,10.42
2017-09-28T02:54:21.951Z,10.55
2017-09-28T02:56:49.459Z,10.47
2017-09-28T02:59:16.995Z,10.22
2017-09-28T03:01:44.508Z,10.22
2017-09-28T03:04:12.034Z,10.31
2017-09-28T03:06:39.550Z,10.07
2017-09-28T03:09:07.061Z,9.95
2017-09-28T03:11:34.590Z,9.90
2017-09-28T03:14:02.097Z,9.87
2017-09-28T03:16:29.607Z,9.84
2017-09-28T03:18:57.113Z,9.83
2017-09-28T03:21:24.614Z,9.99
2017-09-28T03:23:52.130Z,10.01
2017-09-28T03:26:19.633Z,9.84
2017-09-28T03:28:47.160Z,9.97
2017-09-28T03:31:14.671Z,10.14
2017-09-28T03:33:42.180Z,9.98
2017-09-28T03:36:09.695Z,10.04
2017-09-28T03:38:37.222Z,9.96
2017-09-28T03:41:04.837Z,9.97
2017-09-28T03:43:32.348Z,9.95
2017-09-28T03:45:59.856Z,10.00
2017-09-28T03:48:27.366Z,9.99
2017-09-28T03:50:54.886Z,10.22
2017-09-28T03:53:22.410Z,10.53
2017-09-28T03:55:49.919Z,10.34
2017-09-28T03:58:17.422Z,10.06
2017-09-28T04:00:44.951Z,10.27
2017-09-28T04:03:12.474Z,10.37
2017-09-28T04:05:39.978Z,10.49
2017-09-28T04:08:07.483Z,10.27
2017-09-28T04:10:34.983Z,9.96
2017-09-28T04:13:02.496Z,9.91
2017-09-28T04:15:30.027Z,9.92
2017-09-28T04:17:57.544Z,9.97
2017-09-28T04:20:25.062Z,10.06
2017-09-28T04:22:52.594Z,9.96
2017-09-28T04:25:20.090Z,9.75
2017-09-28T04:27:47.644Z,9.65
2017-09-28T04:30:15.295Z,9.69
2017-09-28T04:32:42.829Z,9.62
2017-09-28T04:35:10.359Z,9.68
2017-09-28T04:37:37.858Z,9.62
2017-09-28T04:40:05.373Z,9.52
2017-09-28T04:42:32.899Z,9.55
2017-09-28T04:45:00.423Z,9.68
2017-09-28T04:47:27.920Z,9.44
2017-09-28T04:49:55.436Z,9.36
2017-09-28T04:52:22.960Z,9.33
2017-09-28T04:54:50.463Z,9.42
2017-09-28T04:57:17.999Z,9.37
2017-09-28T04:59:45.507Z,9.55
2017-09-28T05:02:13.036Z,9.73
2017-09-28T05:04:40.560Z,9.94
2017-09-28T05:07:08.076Z,9.71
2017-09-28T05:09:35.586Z,9.81
2017-09-28T05:12:03.134Z,10.08
2017-09-28T05:14:30.636Z,9.74
2017-09-28T05:16:58.143Z,10.02
2017-09-28T05:19:25.664Z,9.68
2017-09-28T05:21:53.181Z,9.77
2017-09-28T05:24:20.685Z,9.67
2017-09-28T05:26:48.329Z,9.76
2017-09-28T05:29:15.938Z,10.04
2017-09-28T05:31:43.459Z,10.22
2017-09-28T05:34:10.980Z,9.88
2017-09-28T05:36:38.488Z,9.65
2017-09-28T05:39:06.007Z,9.38
2017-09-28T05:41:33.510Z,9.38
2017-09-28T05:44:01.045Z,9.49
2017-09-28T05:46:28.579Z,9.74
2017-09-28T05:48:56.109Z,9.71
2017-09-28T05:51:23.627Z,9.81
2017-09-28T05:53:51.131Z,9.92
2017-09-28T05:56:19.341Z,10.03
2017-09-28T05:58:48.613Z,9.93
2017-09-28T06:01:17.032Z,9.95
2017-09-28T06:03:44.536Z,10.35
2017-09-28T06:06:12.048Z,10.45
2017-09-28T06:08:39.559Z,10.54
2017-09-28T06:11:07.065Z,10.39
2017-09-28T06:13:34.589Z,10.41
2017-09-28T06:16:02.100Z,10.68
2017-09-28T06:18:29.620Z,10.99
2017-09-28T06:20:57.155Z,11.12
2017-09-28T06:23:24.660Z,11.40
2017-09-28T06:25:52.199Z,10.86
2017-09-28T06:28:19.720Z,10.93
2017-09-28T06:30:47.233Z,11.26
2017-09-28T06:33:14.747Z,11.23
2017-09-28T06:35:42.264Z,11.65
2017-09-28T06:38:09.778Z,11.85
2017-09-28T06:40:37.284Z,12.07
2017-09-28T06:43:04.804Z,12.21
2017-09-28T06:45:32.332Z,12.30
2017-09-28T06:47:59.857Z,12.79
2017-09-28T06:50:27.363Z,12.69
2017-09-28T06:52:54.891Z,13.24
2017-09-28T06:55:22.448Z,13.61
2017-09-28T06:57:49.965Z,13.48
2017-09-28T07:00:17.498Z,13.69
2017-09-28T07:02:45.059Z,13.62
2017-09-28T07:05:12.576Z,14.14
2017-09-28T07:07:40.110Z,14.66
2017-09-28T07:10:07.647Z,14.72
2017-09-28T07:12:35.180Z,14.58
2017-09-28T07:15:02.703Z,14.53
2017-09-28T07:17:30.247Z,14.94
2017-09-28T07:19:57.779Z,14.89
2017-09-28T07:22:25.309Z,15.05
2017-09-28T07:24:52.844Z,15.01
2017-09-28T07:27:20.377Z,15.30
2017-09-28T07:29:47.912Z,15.59
2017-09-28T07:32:15.436Z,15.67
2017-09-28T07:34:42.963Z,15.29
2017-09-28T07:37:10.501Z,15.05
2017-09-28T07:39:38.011Z,16.20
2017-09-28T07:42:05.550Z,15.83
2017-09-28T07:44:33.084Z,16.08
2017-09-28T07:47:10.840Z,15.65
2017-09-28T07:49:38.372Z,15.53
2017-09-28T07:52:05.891Z,15.97
2017-09-28T07:54:33.410Z,16.64
2017-09-28T07:57:00.955Z,16.15
2017-09-28T07:59:28.483Z,15.73
2017-09-28T08:01:56.105Z,16.02
2017-09-28T08:04:23.623Z,16.26
2017-09-28T08:06:51.136Z,16.51
2017-09-28T08:09:18.647Z,16.43
2017-09-28T08:11:46.180Z,17.91
2017-09-28T08:14:13.712Z,19.63
2017-09-28T08:16:41.234Z,20.04
2017-09-28T08:19:08.747Z,19.39
2017-09-28T08:21:36.282Z,21.45
2017-09-28T08:24:03.795Z,21.44
2017-09-28T08:26:31.296Z,22.03
2017-09-28T08:28:58.822Z,24.41
2017-09-28T08:31:26.352Z,21.55
2017-09-28T08:33:53.871Z,22.54
2017-09-28T08:36:21.391Z,22.26
2017-09-28T08:38:49.230Z,20.18
2017-09-28T08:41:16.728Z,21.59
2017-09-28T08:43:44.241Z,20.87
2017-09-28T08:46:11.776Z,20.09
2017-09-28T08:48:39.302Z,20.81
2017-09-28T08:51:06.841Z,19.96
2017-09-28T08:53:34.589Z,21.52
2017-09-28T08:56:02.096Z,19.88
2017-09-28T08:58:29.634Z,19.80
2017-09-28T09:00:57.172Z,20.41
2017-09-28T09:03:24.687Z,19.86
2017-09-28T09:05:52.330Z,19.85
2017-09-28T09:08:19.848Z,20.50
2017-09-28T09:10:47.366Z,21.06
2017-09-28T09:13:14.892Z,22.88
2017-09-28T09:15:42.424Z,23.16
2017-09-28T09:18:10.069Z,22.51
2017-09-28T09:20:37.587Z,23.40
2017-09-28T09:23:05.112Z,23.11
2017-09-28T09:25:32.639Z,23.15
2017-09-28T09:28:00.157Z,22.97
2017-09-28T09:30:27.682Z,21.61
2017-09-28T09:32:55.315Z,22.45
2017-09-28T09:35:22.833Z,22.04
2017-09-28T09:37:50.435Z,21.46
2017-09-28T09:40:17.951Z,21.06
2017-09-28T09:42:45.484Z,21.23
2017-09-28T09:45:12.986Z,21.82
2017-09-28T09:47:40.828Z,22.44
2017-09-28T09:50:08.334Z,22.50
2017-09-28T09:52:37.380Z,23.28
2017-09-28T09:55:04.896Z,23.01
2017-09-28T09:57:32.499Z,22.00
2017-09-28T10:00:00.029Z,23.69
2017-09-28T10:02:27.552Z,25.28
2017-09-28T10:04:55.059Z,27.03
2017-09-28T10:07:26.899Z,29.34
2017-09-28T10:10:00.436Z,27.91
2017-09-28T10:12:36.306Z,29.80
2017-09-28T10:15:09.820Z,27.94
2017-09-28T10:17:38.166Z,27.24
2017-09-28T10:20:05.688Z,25.96
2017-09-28T10:22:33.205Z,25.20
2017-09-28T10:25:00.733Z,24.85
2017-09-28T10:27:28.267Z,23.08
2017-09-28T10:29:55.850Z,22.80
2017-09-28T10:32:23.390Z,23.35
2017-09-28T10:34:50.915Z,23.08
2017-09-28T10:37:18.440Z,22.62
2017-09-28T10:39:45.949Z,22.42
2017-09-28T10:42:13.457Z,22.39
2017-09-28T10:44:40.965Z,22.11
2017-09-28T10:47:08.478Z,22.63
2017-09-28T10:49:35.996Z,22.93
2017-09-28T10:52:03.494Z,22.46
2017-09-28T10:54:31.013Z,23.02
2017-09-28T10:56:58.529Z,22.86
2017-09-28T10:59:26.044Z,22.66
2017-09-28T11:01:53.539Z,22.53
2017-09-28T11:04:21.056Z,22.54
2017-09-28T11:06:48.564Z,23.34
2017-09-28T11:09:16.072Z,24.35
2017-09-28T11:11:43.575Z,24.06
2017-09-28T11:14:11.079Z,25.16
2017-09-28T11:16:38.585Z,24.85
2017-09-28T11:19:06.108Z,26.62
2017-09-28T11:21:33.630Z,26.62
2017-09-28T11:24:01.154Z,26.86
2017-09-28T11:26:28.703Z,27.70
2017-09-28T11:28:56.288Z,26.53
2017-09-28T11:31:23.807Z,28.23
2017-09-28T11:33:51.364Z,29.12
2017-09-28T11:36:18.858Z,30.08
2017-09-28T11:38:46.361Z,30.11
2017-09-28T11:41:13.871Z,27.11
2017-09-28T11:43:41.376Z,28.76
2017-09-28T11:46:08.896Z,31.45
2017-09-28T11:48:36.504Z,33.96
2017-09-28T11:51:04.653Z,32.25
2017-09-28T11:53:32.178Z,33.39
2017-09-28T11:55:59.694Z,30.01
2017-09-28T11:58:27.243Z,26.55
2017-09-28T12:00:55.028Z,26.35
2017-09-28T12:03:22.529Z,25.52
2017-09-28T12:05:50.032Z,26.36
2017-09-28T12:08:17.547Z,25.49
2017-09-28T12:10:45.048Z,25.63
2017-09-28T12:13:12.558Z,28.01
2017-09-28T12:15:40.523Z,28.85
2017-09-28T12:18:08.028Z,32.09
2017-09-28T12:20:35.586Z,31.33
2017-09-28T12:23:03.239Z,34.63
2017-09-28T12:25:30.757Z,33.00
2017-09-28T12:27:58.261Z,33.03
2017-09-28T12:30:25.797Z,31.68
2017-09-28T12:32:53.311Z,31.22
2017-09-28T12:35:20.844Z,30.37
2017-09-28T12:37:48.360Z,30.22
2017-09-28T12:40:15.877Z,29.54
2017-09-28T12:42:43.394Z,31.26
2017-09-28T12:45:10.921Z,32.47
2017-09-28T12:47:38.478Z,29.14
2017-09-28T12:50:06.032Z,29.49
2017-09-28T12:52:33.530Z,30.65
2017-09-28T12:55:01.036Z,27.76
2017-09-28T12:57:28.545Z,26.45
2017-09-28T12:59:56.056Z,24.96
2017-09-28T13:02:23.941Z,25.71
2017-09-28T13:04:51.467Z,26.87
2017-09-28T13:07:18.976Z,29.09
2017-09-28T13:09:46.475Z,28.46
2017-09-28T13:12:13.982Z,30.18
2017-09-28T13:14:41.498Z,29.34
2017-09-28T13:17:09.006Z,30.36
2017-09-28T13:19:36.913Z,29.73
2017-09-28T13:22:04.418Z,30.84
2017-09-28T13:24:31.943Z,29.41
2017-09-28T13:26:59.522Z,29.95
2017-09-28T13:29:27.031Z,32.25
2017-09-28T13:31:54.555Z,31.38
2017-09-28T13:34:22.079Z,30.59
2017-09-28T13:36:49.583Z,30.78
2017-09-28T13:39:17.121Z,28.19
2017-09-28T13:41:44.627Z,28.77
2017-09-28T13:44:12.131Z,29.89
2017-09-28T13:46:39.656Z,29.92
2017-09-28T13:49:07.175Z,30.60
2017-09-28T13:51:34.723Z,30.40
2017-09-28T13:54:02.254Z,30.92
2017-09-28T13:56:30.496Z,30.55
2017-09-28T13:58:58.005Z,30.57
2017-09-28T14:01:25.511Z,30.31
2017-09-28T14:03:53.032Z,30.86
2017-09-28T14:06:20.545Z,31.19
2017-09-28T14:08:48.080Z,31.08
2017-09-28T14:11:15.605Z,29.79
2017-09-28T14:13:43.190Z,28.86
2017-09-28T14:16:10.731Z,27.68
2017-09-28T14:18:38.237Z,27.91
2017-09-28T14:21:05.752Z,28.03
2017-09-28T14:23:33.260Z,28.31
2017-09-28T14:26:00.814Z,26.59
2017-09-28T14:28:35.695Z,25.46
2017-09-28T14:31:03.222Z,25.22
2017-09-28T14:33:30.732Z,25.38
2017-09-28T14:35:58.275Z,25.10
2017-09-28T14:38:25.802Z,25.40
2017-09-28T14:40:53.328Z,25.34
2017-09-28T14:43:20.920Z,25.45
2017-09-28T14:45:48.453Z,24.52
2017-09-28T14:48:15.977Z,24.31
2017-09-28T14:50:43.488Z,24.34
2017-09-28T14:53:10.993Z,24.81
2017-09-28T14:55:38.524Z,23.88
2017-09-28T14:58:06.042Z,23.49
2017-09-28T15:00:33.546Z,23.74
2017-09-28T15:03:01.074Z,23.60
2017-09-28T15:05:28.584Z,23.34
2017-09-28T15:07:56.124Z,23.05
2017-09-28T15:10:23.627Z,22.94
2017-09-28T15:12:51.139Z,22.72
2017-09-28T15:15:18.714Z,22.13
2017-09-28T15:17:46.245Z,22.14
2017-09-28T15:20:13.753Z,22.37
2017-09-28T15:22:41.392Z,22.16
2017-09-28T15:25:08.947Z,22.05
2017-09-28T15:27:36.457Z,22.15
2017-09-28T15:30:03.954Z,22.18
2017-09-28T15:32:31.476Z,21.78
2017-09-28T15:35:10.230Z,21.82
2017-09-28T15:37:37.747Z,21.86
2017-09-28T15:40:05.272Z,21.73
2017-09-28T15:42:33.008Z,21.80
2017-09-28T15:45:00.568Z,21.74
2017-09-28T15:47:28.090Z,21.94
2017-09-28T15:49:55.621Z,22.48
2017-09-28T15:52:23.120Z,22.30
2017-09-28T15:54:50.661Z,22.32
2017-09-28T15:57:18.192Z,22.19
2017-09-28T15:59:45.709Z,21.75
2017-09-28T16:02:13.229Z,21.38
2017-09-28T16:04:40.745Z,21.11
2017-09-28T16:07:09.055Z,20.97
2017-09-28T16:09:36.614Z,20.90
2017-09-28T16:12:04.142Z,20.87
2017-09-28T16:14:31.682Z,20.72
2017-09-28T16:16:59.209Z,20.55
2017-09-28T16:19:26.815Z,20.32
2017-09-28T16:21:54.376Z,20.20
2017-09-28T16:24:21.882Z,20.14
2017-09-28T16:26:49.492Z,20.10
2017-09-28T16:29:17.011Z,20.16
2017-09-28T16:31:44.558Z,20.33
2017-09-28T16:34:12.076Z,20.20
2017-09-28T16:36:39.591Z,20.07
2017-09-28T16:39:07.101Z,20.12
2017-09-28T16:41:35.608Z,20.17
2017-09-28T16:44:03.132Z,20.05
2017-09-28T16:46:30.656Z,19.95
2017-09-28T16:48:58.161Z,19.81
2017-09-28T16:51:25.730Z,19.76
2017-09-28T16:53:53.285Z,19.78
2017-09-28T16:56:20.803Z,19.54
2017-09-28T16:58:48.409Z,19.41
2017-09-28T17:01:15.920Z,19.36
2017-09-28T17:03:43.604Z,19.15
2017-09-28T17:06:11.163Z,19.09
2017-09-28T17:08:38.680Z,19.22
2017-09-28T17:11:06.187Z,19.17
2017-09-28T17:13:33.726Z,19.41
2017-09-28T17:16:01.260Z,19.26
2017-09-28T17:18:28.774Z,19.37
2017-09-28T17:20:58.130Z,19.11
2017-09-28T17:23:25.680Z,18.86
2017-09-28T17:25:53.204Z,18.58
2017-09-28T17:28:20.785Z,17.97
2017-09-28T17:30:48.337Z,17.81
2017-09-28T17:33:15.914Z,17.81
2017-09-28T17:35:43.442Z,17.99
2017-09-28T17:38:11.014Z,17.74
2017-09-28T17:40:38.556Z,17.73
2017-09-28T17:43:06.169Z,17.44
2017-09-28T17:45:33.704Z,17.56
2017-09-28T17:48:01.207Z,17.45
2017-09-28T17:50:28.786Z,17.41
2017-09-28T17:52:56.340Z,17.52
2017-09-28T17:55:23.975Z,17.40
2017-09-28T17:57:51.625Z,16.99
2017-09-28T18:00:19.170Z,16.46
2017-09-28T18:02:46.747Z,16.38
2017-09-28T18:05:14.459Z,16.30
2017-09-28T18:07:42.023Z,16.22
2017-09-28T18:10:09.588Z,16.29
2017-09-28T18:12:37.104Z,16.27
2017-09-28T18:15:04.657Z,16.48
2017-09-28T18:17:32.222Z,16.44
2017-09-28T18:19:59.859Z,16.18
2017-09-28T18:22:28.410Z,16.00
2017-09-28T18:24:55.983Z,15.88
2017-09-28T18:27:23.527Z,15.90
2017-09-28T18:29:51.044Z,15.80
2017-09-28T18:32:18.575Z,15.76
2017-09-28T18:34:46.995Z,15.73
2017-09-28T18:37:14.577Z,15.68
2017-09-28T18:39:43.142Z,15.71
2017-09-28T18:42:10.674Z,15.70
2017-09-28T18:44:38.216Z,15.59
2017-09-28T18:47:05.805Z,15.59
2017-09-28T18:49:33.342Z,15.54
2017-09-28T18:52:00.884Z,15.47
2017-09-28T18:54:28.398Z,15.62
2017-09-28T18:56:55.939Z,15.70
2017-09-28T18:59:23.463Z,15.69
2017-09-28T19:01:50.995Z,15.65
2017-09-28T19:04:18.528Z,15.44
2017-09-28T19:06:46.100Z,15.36
2017-09-28T19:09:13.630Z,15.52
2017-09-28T19:11:41.185Z,15.60
2017-09-28T19:14:08.699Z,15.44
2017-09-28T19:16:36.233Z,15.48
2017-09-28T19:19:03.778Z,15.74
2017-09-28T19:21:31.392Z,15.34
2017-09-28T19:23:59.050Z,15.04
2017-09-28T19:26:26.712Z,14.98
2017-09-28T19:28:54.382Z,15.11
2017-09-28T19:31:21.916Z,15.18
2017-09-28T19:33:49.456Z,15.49
2017-09-28T19:36:17.018Z,15.25
2017-09-28T19:38:44.538Z,15.25
2017-09-28T19:41:12.095Z,15.00
2017-09-28T19:43:39.639Z,14.97
2017-09-28T19:46:07.164Z,15.07
2017-09-28T19:48:34.688Z,15.16
2017-09-28T19:51:02.223Z,15.22
2017-09-28T19:53:29.793Z,15.15
2017-09-28T19:55:57.350Z,15.34
2017-09-28T19:58:24.882Z,15.25
2017-09-28T20:00:52.536Z,15.05
2017-09-28T20:03:20.050Z,15.01
2017-09-28T20:05:47.596Z,15.02
2017-09-28T20:08:15.143Z,15.12
2017-09-28T20:10:42.771Z,15.19
2017-09-28T20:13:10.289Z,15.11
2017-09-28T20:15:37.828Z,15.11
2017-09-28T20:18:05.366Z,15.13
2017-09-28T20:20:32.886Z,15.03
2017-09-28T20:23:00.422Z,15.05
2017-09-28T20:25:27.948Z,15.08
2017-09-28T20:27:55.467Z,15.40
2017-09-28T20:30:22.984Z,15.31
2017-09-28T20:32:50.507Z,15.34
2017-09-28T20:35:18.011Z,15.63
2017-09-28T20:37:45.547Z,15.53
2017-09-28T20:40:13.067Z,15.35
2017-09-28T20:42:40.588Z,15.71
2017-09-28T20:45:08.116Z,15.52
2017-09-28T20:47:35.642Z,15.48
2017-09-28T20:50:03.185Z,15.26
2017-09-28T20:52:30.730Z,15.19
2017-09-28T20:54:58.262Z,15.14
2017-09-28T20:57:25.780Z,15.21
2017-09-28T20:59:53.332Z,15.51
2017-09-28T21:02:20.888Z,15.55
2017-09-28T21:04:48.423Z,15.30
2017-09-28T21:07:15.948Z,14.96
2017-09-28T21:09:43.470Z,15.02
2017-09-28T21:12:11.005Z,15.18
2017-09-28T21:14:38.515Z,15.42
2017-09-28T21:17:06.024Z,15.19
2017-09-28T21:19:33.568Z,15.40
2017-09-28T21:22:01.073Z,15.24
2017-09-28T21:24:28.589Z,15.28
2017-09-28T21:26:56.115Z,15.41
2017-09-28T21:29:23.640Z,15.31
2017-09-28T21:31:51.174Z,15.17
2017-09-28T21:34:18.746Z,15.12
2017-09-28T21:36:46.290Z,15.13
2017-09-28T21:39:13.815Z,14.97
2017-09-28T21:41:41.342Z,14.85
2017-09-28T21:44:08.863Z,14.78
2017-09-28T21:46:36.387Z,14.66
2017-09-28T21:49:03.924Z,14.84
2017-09-28T21:51:31.448Z,14.83
2017-09-28T21:53:59.391Z,14.73
2017-09-28T21:56:26.903Z,14.43
2017-09-28T21:58:54.424Z,14.26
2017-09-28T22:01:22.082Z,14.30
2017-09-28T22:03:49.605Z,14.27
2017-09-28T22:06:17.116Z,14.28
2017-09-28T22:08:44.641Z,14.27
2017-09-28T22:11:12.156Z,14.32
2017-09-28T22:13:39.673Z,14.27
2017-09-28T22:16:07.187Z,14.12
2017-09-28T22:18:34.744Z,14.06
2017-09-28T22:21:02.275Z,13.95
2017-09-28T22:23:29.923Z,13.90
2017-09-28T22:25:57.494Z,13.93
2017-09-28T22:28:25.047Z,13.95
2017-09-28T22:30:52.584Z,14.04
2017-09-28T22:33:20.114Z,14.02
2017-09-28T22:35:47.640Z,14.08
2017-09-28T22:38:15.161Z,13.96
2017-09-28T22:40:42.684Z,13.87
2017-09-28T22:43:10.215Z,13.94
2017-09-28T22:45:37.731Z,13.90
2017-09-28T22:48:05.250Z,13.85
2017-09-28T22:50:32.770Z,13.83
2017-09-28T22:53:00.288Z,14.05
2017-09-28T22:55:27.819Z,13.88
2017-09-28T22:57:55.355Z,13.85
2017-09-28T23:00:22.882Z,13.64
2017-09-28T23:02:50.416Z,13.65
2017-09-28T23:05:17.961Z,13.81
2017-09-28T23:07:45.470Z,14.16
2017-09-28T23:10:13.014Z,14.22
2017-09-28T23:12:40.526Z,13.98
2017-09-28T23:15:08.064Z,14.02
2017-09-28T23:17:35.654Z,14.19
2017-09-28T23:20:03.199Z,14.12
2017-09-28T23:22:30.724Z,13.83
2017-09-28T23:24:58.247Z,13.71
2017-09-28T23:27:25.779Z,13.59
2017-09-28T23:29:53.305Z,13.71
2017-09-28T23:32:20.830Z,13.59
2017-09-28T23:34:48.367Z,13.32
2017-09-28T23:37:15.898Z,13.32
2017-09-28T23:39:43.427Z,13.29
2017-09-28T23:42:10.953Z,13.20
2017-09-28T23:44:38.475Z,13.15
2017-09-28T23:47:05.999Z,13.43
2017-09-28T23:49:33.518Z,13.47
2017-09-28T23:52:01.049Z,13.37
2017-09-28T23:54:28.586Z,13.39
2017-09-28T23:56:56.129Z,13.26
2017-09-28T23:59:23.655Z,13.44
